sensor_id;sensor_type;location;lat;lon;timestamp;temperature;humidity
29663;DHT22;16578;53.266;7.920;2022-10-12T00:01:52;12.40;69.60
29663;DHT22;16578;53.266;7.920;2022-10-12T00:04:18;12.40;69.60
29663;DHT22;16578;53.266;7.920;2022-10-12T00:06:44;12.40;69.70
29663;DHT22;16578;53.266;7.920;2022-10-12T00:09:09;12.40;69.70
29663;DHT22;16578;53.266;7.920;2022-10-12T00:11:35;12.40;69.60
29663;DHT22;16578;53.266;7.920;2022-10-12T00:14:00;12.40;69.40
29663;DHT22;16578;53.266;7.920;2022-10-12T00:16:26;12.30;69.30
29663;DHT22;16578;53.266;7.920;2022-10-12T00:18:56;12.30;69.30
29663;DHT22;16578;53.266;7.920;2022-10-12T00:21:23;12.30;69.40
29663;DHT22;16578;53.266;7.920;2022-10-12T00:23:50;12.30;69.40
29663;DHT22;16578;53.266;7.920;2022-10-12T00:26:20;12.30;69.50
29663;DHT22;16578;53.266;7.920;2022-10-12T00:28:46;12.20;69.40
29663;DHT22;16578;53.266;7.920;2022-10-12T00:31:15;12.20;69.40
29663;DHT22;16578;53.266;7.920;2022-10-12T00:33:40;12.20;69.30
29663;DHT22;16578;53.266;7.920;2022-10-12T00:36:19;12.10;69.40
29663;DHT22;16578;53.266;7.920;2022-10-12T00:38:46;12.10;69.30
29663;DHT22;16578;53.266;7.920;2022-10-12T00:41:12;12.10;69.40
29663;DHT22;16578;53.266;7.920;2022-10-12T00:43:40;12.10;69.40
29663;DHT22;16578;53.266;7.920;2022-10-12T00:48:57;12.10;69.30
29663;DHT22;16578;53.266;7.920;2022-10-12T00:51:23;12.10;69.40
29663;DHT22;16578;53.266;7.920;2022-10-12T00:53:55;12.00;69.40
29663;DHT22;16578;53.266;7.920;2022-10-12T00:56:24;12.00;69.40
29663;DHT22;16578;53.266;7.920;2022-10-12T00:58:52;12.00;69.40
29663;DHT22;16578;53.266;7.920;2022-10-12T01:01:20;11.90;69.30
29663;DHT22;16578;53.266;7.920;2022-10-12T01:03:46;11.90;69.40
29663;DHT22;16578;53.266;7.920;2022-10-12T01:06:13;11.90;69.40
29663;DHT22;16578;53.266;7.920;2022-10-12T01:08:38;11.90;69.50
29663;DHT22;16578;53.266;7.920;2022-10-12T01:11:04;11.90;69.60
29663;DHT22;16578;53.266;7.920;2022-10-12T01:13:31;11.90;69.60
29663;DHT22;16578;53.266;7.920;2022-10-12T01:16:04;11.80;69.50
29663;DHT22;16578;53.266;7.920;2022-10-12T01:18:41;11.90;69.40
29663;DHT22;16578;53.266;7.920;2022-10-12T01:21:18;11.80;69.40
29663;DHT22;16578;53.266;7.920;2022-10-12T01:32:01;11.80;69.50
29663;DHT22;16578;53.266;7.920;2022-10-12T01:34:52;11.80;69.40
29663;DHT22;16578;53.266;7.920;2022-10-12T01:41:07;11.70;69.10
29663;DHT22;16578;53.266;7.920;2022-10-12T01:43:37;11.70;69.40
29663;DHT22;16578;53.266;7.920;2022-10-12T01:48:57;11.60;69.30
29663;DHT22;16578;53.266;7.920;2022-10-12T01:54:37;11.60;69.30
29663;DHT22;16578;53.266;7.920;2022-10-12T01:57:39;11.60;69.40
29663;DHT22;16578;53.266;7.920;2022-10-12T02:00:11;11.50;69.40
29663;DHT22;16578;53.266;7.920;2022-10-12T02:05:44;11.50;69.40
29663;DHT22;16578;53.266;7.920;2022-10-12T02:10:51;11.40;69.50
29663;DHT22;16578;53.266;7.920;2022-10-12T02:13:19;11.40;69.50
29663;DHT22;16578;53.266;7.920;2022-10-12T02:15:47;11.40;70.40
29663;DHT22;16578;53.266;7.920;2022-10-12T02:18:16;11.40;69.50
29663;DHT22;16578;53.266;7.920;2022-10-12T02:20:45;11.40;69.60
29663;DHT22;16578;53.266;7.920;2022-10-12T02:23:12;11.40;69.60
29663;DHT22;16578;53.266;7.920;2022-10-12T02:25:38;11.40;69.60
29663;DHT22;16578;53.266;7.920;2022-10-12T02:28:08;11.40;70.60
29663;DHT22;16578;53.266;7.920;2022-10-12T02:30:44;11.40;69.70
29663;DHT22;16578;53.266;7.920;2022-10-12T02:33:24;11.40;69.90
29663;DHT22;16578;53.266;7.920;2022-10-12T02:35:57;11.40;69.80
29663;DHT22;16578;53.266;7.920;2022-10-12T02:38:30;11.40;69.70
29663;DHT22;16578;53.266;7.920;2022-10-12T02:41:01;11.40;69.50
29663;DHT22;16578;53.266;7.920;2022-10-12T02:43:45;11.30;69.50
29663;DHT22;16578;53.266;7.920;2022-10-12T02:46:13;11.40;69.70
29663;DHT22;16578;53.266;7.920;2022-10-12T02:48:40;11.30;69.60
29663;DHT22;16578;53.266;7.920;2022-10-12T02:51:08;11.30;69.60
29663;DHT22;16578;53.266;7.920;2022-10-12T02:53:34;11.30;69.50
29663;DHT22;16578;53.266;7.920;2022-10-12T02:56:06;11.30;69.40
29663;DHT22;16578;53.266;7.920;2022-10-12T02:58:32;11.30;69.20
29663;DHT22;16578;53.266;7.920;2022-10-12T03:00:57;11.20;69.30
29663;DHT22;16578;53.266;7.920;2022-10-12T03:03:23;11.20;70.30
29663;DHT22;16578;53.266;7.920;2022-10-12T03:05:49;11.20;69.50
29663;DHT22;16578;53.266;7.920;2022-10-12T03:08:15;11.20;69.70
29663;DHT22;16578;53.266;7.920;2022-10-12T03:10:41;11.20;69.70
29663;DHT22;16578;53.266;7.920;2022-10-12T03:13:06;11.20;69.80
29663;DHT22;16578;53.266;7.920;2022-10-12T03:15:32;11.20;69.90
29663;DHT22;16578;53.266;7.920;2022-10-12T03:17:58;11.20;69.80
29663;DHT22;16578;53.266;7.920;2022-10-12T03:20:23;11.20;69.60
29663;DHT22;16578;53.266;7.920;2022-10-12T03:22:49;11.20;69.50
29663;DHT22;16578;53.266;7.920;2022-10-12T03:25:15;11.20;69.30
29663;DHT22;16578;53.266;7.920;2022-10-12T03:27:40;11.20;69.30
29663;DHT22;16578;53.266;7.920;2022-10-12T03:30:07;11.10;69.30
29663;DHT22;16578;53.266;7.920;2022-10-12T03:32:32;11.10;69.40
29663;DHT22;16578;53.266;7.920;2022-10-12T03:34:58;11.10;69.20
29663;DHT22;16578;53.266;7.920;2022-10-12T03:37:24;11.10;69.20
29663;DHT22;16578;53.266;7.920;2022-10-12T03:39:49;11.10;69.10
29663;DHT22;16578;53.266;7.920;2022-10-12T03:42:15;11.00;69.10
29663;DHT22;16578;53.266;7.920;2022-10-12T03:44:40;11.00;69.10
29663;DHT22;16578;53.266;7.920;2022-10-12T03:47:06;11.00;69.10
29663;DHT22;16578;53.266;7.920;2022-10-12T03:49:32;11.00;69.10
29663;DHT22;16578;53.266;7.920;2022-10-12T03:51:57;11.00;69.10
29663;DHT22;16578;53.266;7.920;2022-10-12T03:54:23;11.00;69.20
29663;DHT22;16578;53.266;7.920;2022-10-12T03:56:49;10.90;69.20
29663;DHT22;16578;53.266;7.920;2022-10-12T03:59:14;10.90;69.10
29663;DHT22;16578;53.266;7.920;2022-10-12T04:01:40;10.90;69.20
29663;DHT22;16578;53.266;7.920;2022-10-12T04:04:05;10.90;69.30
29663;DHT22;16578;53.266;7.920;2022-10-12T04:06:31;10.90;69.20
29663;DHT22;16578;53.266;7.920;2022-10-12T04:08:56;10.90;69.90
29663;DHT22;16578;53.266;7.920;2022-10-12T04:11:22;10.90;69.00
29663;DHT22;16578;53.266;7.920;2022-10-12T04:13:47;10.90;68.90
29663;DHT22;16578;53.266;7.920;2022-10-12T04:16:13;10.80;68.90
29663;DHT22;16578;53.266;7.920;2022-10-12T04:18:38;10.80;68.90
29663;DHT22;16578;53.266;7.920;2022-10-12T04:21:08;10.80;68.90
29663;DHT22;16578;53.266;7.920;2022-10-12T04:23:37;10.80;68.90
29663;DHT22;16578;53.266;7.920;2022-10-12T04:26:03;10.80;69.00
29663;DHT22;16578;53.266;7.920;2022-10-12T04:28:32;10.70;69.20
29663;DHT22;16578;53.266;7.920;2022-10-12T04:30:57;10.80;69.30
29663;DHT22;16578;53.266;7.920;2022-10-12T04:33:23;10.70;69.40
29663;DHT22;16578;53.266;7.920;2022-10-12T04:35:49;10.70;69.40
29663;DHT22;16578;53.266;7.920;2022-10-12T04:38:14;10.70;69.10
29663;DHT22;16578;53.266;7.920;2022-10-12T04:40:40;10.70;69.00
29663;DHT22;16578;53.266;7.920;2022-10-12T04:43:06;10.70;69.00
29663;DHT22;16578;53.266;7.920;2022-10-12T04:45:31;10.70;69.00
29663;DHT22;16578;53.266;7.920;2022-10-12T04:47:57;10.60;69.10
29663;DHT22;16578;53.266;7.920;2022-10-12T04:50:22;10.70;69.10
29663;DHT22;16578;53.266;7.920;2022-10-12T04:52:48;10.60;68.90
29663;DHT22;16578;53.266;7.920;2022-10-12T04:55:13;10.60;68.80
29663;DHT22;16578;53.266;7.920;2022-10-12T04:57:39;10.60;68.80
29663;DHT22;16578;53.266;7.920;2022-10-12T05:00:06;10.60;68.90
29663;DHT22;16578;53.266;7.920;2022-10-12T05:02:32;10.60;68.90
29663;DHT22;16578;53.266;7.920;2022-10-12T05:04:57;10.60;69.00
29663;DHT22;16578;53.266;7.920;2022-10-12T05:07:23;10.50;68.90
29663;DHT22;16578;53.266;7.920;2022-10-12T05:09:49;10.50;69.00
29663;DHT22;16578;53.266;7.920;2022-10-12T05:12:14;10.50;69.00
29663;DHT22;16578;53.266;7.920;2022-10-12T05:14:40;10.50;69.20
29663;DHT22;16578;53.266;7.920;2022-10-12T05:17:05;10.50;69.30
29663;DHT22;16578;53.266;7.920;2022-10-12T05:19:31;10.50;69.10
29663;DHT22;16578;53.266;7.920;2022-10-12T05:22:00;10.50;69.00
29663;DHT22;16578;53.266;7.920;2022-10-12T05:24:25;10.50;69.00
29663;DHT22;16578;53.266;7.920;2022-10-12T05:26:51;10.50;69.00
29663;DHT22;16578;53.266;7.920;2022-10-12T05:29:16;10.50;69.10
29663;DHT22;16578;53.266;7.920;2022-10-12T05:31:42;10.50;69.20
29663;DHT22;16578;53.266;7.920;2022-10-12T05:34:07;10.50;69.40
29663;DHT22;16578;53.266;7.920;2022-10-12T05:36:33;10.40;69.30
29663;DHT22;16578;53.266;7.920;2022-10-12T05:38:58;10.40;69.40
29663;DHT22;16578;53.266;7.920;2022-10-12T05:41:24;10.40;69.70
29663;DHT22;16578;53.266;7.920;2022-10-12T05:43:50;10.50;70.20
29663;DHT22;16578;53.266;7.920;2022-10-12T05:46:17;10.50;70.40
29663;DHT22;16578;53.266;7.920;2022-10-12T05:48:42;10.50;70.40
29663;DHT22;16578;53.266;7.920;2022-10-12T05:51:08;10.50;71.50
29663;DHT22;16578;53.266;7.920;2022-10-12T05:53:34;10.50;70.80
29663;DHT22;16578;53.266;7.920;2022-10-12T05:56:00;10.50;71.00
29663;DHT22;16578;53.266;7.920;2022-10-12T05:58:28;10.50;71.00
29663;DHT22;16578;53.266;7.920;2022-10-12T06:01:11;10.60;71.00
29663;DHT22;16578;53.266;7.920;2022-10-12T06:03:37;10.60;71.20
29663;DHT22;16578;53.266;7.920;2022-10-12T06:06:03;10.60;71.20
29663;DHT22;16578;53.266;7.920;2022-10-12T06:08:31;10.60;71.10
29663;DHT22;16578;53.266;7.920;2022-10-12T06:10:57;10.60;70.70
29663;DHT22;16578;53.266;7.920;2022-10-12T06:13:22;10.60;70.50
29663;DHT22;16578;53.266;7.920;2022-10-12T06:15:48;10.60;70.50
29663;DHT22;16578;53.266;7.920;2022-10-12T06:18:15;10.60;70.40
29663;DHT22;16578;53.266;7.920;2022-10-12T06:20:48;10.60;70.40
29663;DHT22;16578;53.266;7.920;2022-10-12T06:23:15;10.60;70.40
29663;DHT22;16578;53.266;7.920;2022-10-12T06:25:41;10.60;70.50
29663;DHT22;16578;53.266;7.920;2022-10-12T06:28:07;10.60;70.60
29663;DHT22;16578;53.266;7.920;2022-10-12T06:30:32;10.60;70.40
29663;DHT22;16578;53.266;7.920;2022-10-12T06:32:58;10.60;70.30
29663;DHT22;16578;53.266;7.920;2022-10-12T06:35:23;10.60;70.50
29663;DHT22;16578;53.266;7.920;2022-10-12T06:37:50;10.60;71.40
29663;DHT22;16578;53.266;7.920;2022-10-12T06:40:19;10.70;70.80
29663;DHT22;16578;53.266;7.920;2022-10-12T06:42:45;10.70;70.80
29663;DHT22;16578;53.266;7.920;2022-10-12T06:45:11;10.70;70.70
29663;DHT22;16578;53.266;7.920;2022-10-12T06:47:36;10.70;70.60
29663;DHT22;16578;53.266;7.920;2022-10-12T06:50:03;10.70;70.60
29663;DHT22;16578;53.266;7.920;2022-10-12T06:52:28;10.70;70.70
29663;DHT22;16578;53.266;7.920;2022-10-12T06:54:54;10.70;70.70
29663;DHT22;16578;53.266;7.920;2022-10-12T06:57:19;10.70;70.80
29663;DHT22;16578;53.266;7.920;2022-10-12T06:59:45;10.70;70.90
29663;DHT22;16578;53.266;7.920;2022-10-12T07:02:11;10.80;71.10
29663;DHT22;16578;53.266;7.920;2022-10-12T07:04:36;10.80;71.20
29663;DHT22;16578;53.266;7.920;2022-10-12T07:07:02;10.80;71.60
29663;DHT22;16578;53.266;7.920;2022-10-12T07:09:28;10.90;72.00
29663;DHT22;16578;53.266;7.920;2022-10-12T07:11:54;10.90;72.00
29663;DHT22;16578;53.266;7.920;2022-10-12T07:14:20;10.90;71.90
29663;DHT22;16578;53.266;7.920;2022-10-12T07:16:46;11.00;71.70
29663;DHT22;16578;53.266;7.920;2022-10-12T07:19:12;11.00;71.70
29663;DHT22;16578;53.266;7.920;2022-10-12T07:21:37;11.10;71.80
29663;DHT22;16578;53.266;7.920;2022-10-12T07:24:03;11.10;71.80
29663;DHT22;16578;53.266;7.920;2022-10-12T07:26:29;11.10;71.80
29663;DHT22;16578;53.266;7.920;2022-10-12T07:28:56;11.10;72.00
29663;DHT22;16578;53.266;7.920;2022-10-12T07:31:21;11.20;72.50
29663;DHT22;16578;53.266;7.920;2022-10-12T07:33:47;11.20;73.10
29663;DHT22;16578;53.266;7.920;2022-10-12T07:36:13;11.30;73.30
29663;DHT22;16578;53.266;7.920;2022-10-12T07:38:38;11.40;73.10
29663;DHT22;16578;53.266;7.920;2022-10-12T07:41:04;11.40;73.00
29663;DHT22;16578;53.266;7.920;2022-10-12T07:43:30;11.50;73.00
29663;DHT22;16578;53.266;7.920;2022-10-12T07:45:56;11.50;73.30
29663;DHT22;16578;53.266;7.920;2022-10-12T07:48:22;11.60;73.60
29663;DHT22;16578;53.266;7.920;2022-10-12T07:50:48;11.70;73.80
29663;DHT22;16578;53.266;7.920;2022-10-12T07:53:14;11.70;73.70
29663;DHT22;16578;53.266;7.920;2022-10-12T07:55:40;11.80;73.40
29663;DHT22;16578;53.266;7.920;2022-10-12T07:58:05;11.90;73.30
29663;DHT22;16578;53.266;7.920;2022-10-12T08:00:31;11.90;73.50
29663;DHT22;16578;53.266;7.920;2022-10-12T08:02:57;11.90;73.60
29663;DHT22;16578;53.266;7.920;2022-10-12T08:05:24;12.00;73.40
29663;DHT22;16578;53.266;7.920;2022-10-12T08:07:50;12.00;73.20
29663;DHT22;16578;53.266;7.920;2022-10-12T08:10:16;12.00;73.00
29663;DHT22;16578;53.266;7.920;2022-10-12T08:12:43;12.10;73.10
29663;DHT22;16578;53.266;7.920;2022-10-12T08:15:09;12.10;73.20
29663;DHT22;16578;53.266;7.920;2022-10-12T08:17:35;12.20;73.40
29663;DHT22;16578;53.266;7.920;2022-10-12T08:20:01;12.20;73.40
29663;DHT22;16578;53.266;7.920;2022-10-12T08:22:27;12.20;73.60
29663;DHT22;16578;53.266;7.920;2022-10-12T08:24:52;12.20;73.50
29663;DHT22;16578;53.266;7.920;2022-10-12T08:27:18;12.30;73.70
29663;DHT22;16578;53.266;7.920;2022-10-12T08:29:43;12.30;73.60
29663;DHT22;16578;53.266;7.920;2022-10-12T08:32:09;12.40;73.80
29663;DHT22;16578;53.266;7.920;2022-10-12T08:34:34;12.40;73.80
29663;DHT22;16578;53.266;7.920;2022-10-12T08:37:00;12.50;73.90
29663;DHT22;16578;53.266;7.920;2022-10-12T08:39:25;12.50;73.90
29663;DHT22;16578;53.266;7.920;2022-10-12T08:47:42;12.80;74.60
29663;DHT22;16578;53.266;7.920;2022-10-12T08:50:49;12.90;74.80
29663;DHT22;16578;53.266;7.920;2022-10-12T08:53:20;13.00;74.40
29663;DHT22;16578;53.266;7.920;2022-10-12T08:55:47;13.10;74.40
29663;DHT22;16578;53.266;7.920;2022-10-12T08:58:24;13.20;74.30
29663;DHT22;16578;53.266;7.920;2022-10-12T09:00:57;13.30;75.00
29663;DHT22;16578;53.266;7.920;2022-10-12T09:03:46;13.40;74.00
29663;DHT22;16578;53.266;7.920;2022-10-12T09:06:22;13.50;73.80
29663;DHT22;16578;53.266;7.920;2022-10-12T09:09:02;13.60;73.90
29663;DHT22;16578;53.266;7.920;2022-10-12T09:12:00;13.70;73.90
29663;DHT22;16578;53.266;7.920;2022-10-12T09:14:31;13.90;73.80
29663;DHT22;16578;53.266;7.920;2022-10-12T09:16:59;14.00;73.40
29663;DHT22;16578;53.266;7.920;2022-10-12T09:19:46;14.10;72.90
29663;DHT22;16578;53.266;7.920;2022-10-12T09:22:19;14.20;72.80
29663;DHT22;16578;53.266;7.920;2022-10-12T09:24:47;14.20;72.70
29663;DHT22;16578;53.266;7.920;2022-10-12T09:27:18;14.40;72.70
29663;DHT22;16578;53.266;7.920;2022-10-12T09:29:49;14.40;72.30
29663;DHT22;16578;53.266;7.920;2022-10-12T09:35:14;14.60;71.50
29663;DHT22;16578;53.266;7.920;2022-10-12T09:37:40;14.70;71.30
29663;DHT22;16578;53.266;7.920;2022-10-12T09:40:06;14.70;70.80
29663;DHT22;16578;53.266;7.920;2022-10-12T09:42:39;14.80;70.50
29663;DHT22;16578;53.266;7.920;2022-10-12T09:45:17;14.80;70.40
29663;DHT22;16578;53.266;7.920;2022-10-12T09:48:16;14.90;70.30
29663;DHT22;16578;53.266;7.920;2022-10-12T09:50:55;14.90;70.20
29663;DHT22;16578;53.266;7.920;2022-10-12T09:53:29;15.00;70.20
29663;DHT22;16578;53.266;7.920;2022-10-12T09:56:03;15.00;70.20
29663;DHT22;16578;53.266;7.920;2022-10-12T09:58:29;15.00;69.90
29663;DHT22;16578;53.266;7.920;2022-10-12T10:01:16;15.10;69.90
29663;DHT22;16578;53.266;7.920;2022-10-12T10:03:46;15.10;69.80
29663;DHT22;16578;53.266;7.920;2022-10-12T10:06:12;15.10;69.70
29663;DHT22;16578;53.266;7.920;2022-10-12T10:08:43;15.20;69.50
29663;DHT22;16578;53.266;7.920;2022-10-12T10:11:15;15.20;69.30
29663;DHT22;16578;53.266;7.920;2022-10-12T10:13:48;15.30;69.20
29663;DHT22;16578;53.266;7.920;2022-10-12T10:16:14;15.30;69.00
29663;DHT22;16578;53.266;7.920;2022-10-12T10:18:55;15.30;68.90
29663;DHT22;16578;53.266;7.920;2022-10-12T10:21:31;15.30;68.30
29663;DHT22;16578;53.266;7.920;2022-10-12T10:24:04;15.40;68.50
29663;DHT22;16578;53.266;7.920;2022-10-12T10:27:00;15.50;68.20
29663;DHT22;16578;53.266;7.920;2022-10-12T10:29:39;15.50;67.50
29663;DHT22;16578;53.266;7.920;2022-10-12T10:37:45;15.70;67.20
29663;DHT22;16578;53.266;7.920;2022-10-12T10:40:32;15.70;66.70
29663;DHT22;16578;53.266;7.920;2022-10-12T10:43:02;15.80;66.60
29663;DHT22;16578;53.266;7.920;2022-10-12T10:45:40;15.80;66.80
29663;DHT22;16578;53.266;7.920;2022-10-12T10:48:08;15.80;66.70
29663;DHT22;16578;53.266;7.920;2022-10-12T10:50:39;15.90;66.70
29663;DHT22;16578;53.266;7.920;2022-10-12T10:53:19;15.90;66.10
29663;DHT22;16578;53.266;7.920;2022-10-12T10:58:43;15.90;65.90
29663;DHT22;16578;53.266;7.920;2022-10-12T11:01:26;16.00;66.20
29663;DHT22;16578;53.266;7.920;2022-10-12T11:04:01;16.00;66.20
29663;DHT22;16578;53.266;7.920;2022-10-12T11:06:36;16.00;65.30
29663;DHT22;16578;53.266;7.920;2022-10-12T11:09:11;16.00;65.00
29663;DHT22;16578;53.266;7.920;2022-10-12T11:11:39;16.00;64.90
29663;DHT22;16578;53.266;7.920;2022-10-12T11:14:18;16.00;65.10
29663;DHT22;16578;53.266;7.920;2022-10-12T11:19:32;16.10;65.10
29663;DHT22;16578;53.266;7.920;2022-10-12T11:22:02;16.10;64.60
29663;DHT22;16578;53.266;7.920;2022-10-12T11:24:44;16.10;64.40
29663;DHT22;16578;53.266;7.920;2022-10-12T11:27:22;16.20;64.40
29663;DHT22;16578;53.266;7.920;2022-10-12T11:29:55;16.20;64.80
29663;DHT22;16578;53.266;7.920;2022-10-12T11:32:34;16.20;64.50
29663;DHT22;16578;53.266;7.920;2022-10-12T11:35:03;16.30;64.60
29663;DHT22;16578;53.266;7.920;2022-10-12T11:37:41;16.30;64.60
29663;DHT22;16578;53.266;7.920;2022-10-12T11:40:17;16.40;64.10
29663;DHT22;16578;53.266;7.920;2022-10-12T11:42:45;16.40;63.80
29663;DHT22;16578;53.266;7.920;2022-10-12T11:45:52;16.40;63.30
29663;DHT22;16578;53.266;7.920;2022-10-12T11:48:26;16.50;62.50
29663;DHT22;16578;53.266;7.920;2022-10-12T11:50:55;16.50;62.90
29663;DHT22;16578;53.266;7.920;2022-10-12T11:53:40;16.50;62.70
29663;DHT22;16578;53.266;7.920;2022-10-12T11:58:49;16.60;61.50
29663;DHT22;16578;53.266;7.920;2022-10-12T12:01:48;16.60;61.60
29663;DHT22;16578;53.266;7.920;2022-10-12T12:04:32;16.70;60.90
29663;DHT22;16578;53.266;7.920;2022-10-12T12:07:50;16.70;61.30
29663;DHT22;16578;53.266;7.920;2022-10-12T12:09:51;16.70;61.50
29663;DHT22;16578;53.266;7.920;2022-10-12T12:12:23;16.70;61.90
29663;DHT22;16578;53.266;7.920;2022-10-12T12:19:48;16.80;61.20
29663;DHT22;16578;53.266;7.920;2022-10-12T12:27:51;16.90;60.30
29663;DHT22;16578;53.266;7.920;2022-10-12T12:32:59;16.90;60.60
29663;DHT22;16578;53.266;7.920;2022-10-12T12:35:26;16.90;60.30
29663;DHT22;16578;53.266;7.920;2022-10-12T12:38:22;16.90;60.80
29663;DHT22;16578;53.266;7.920;2022-10-12T12:41:00;16.90;60.60
29663;DHT22;16578;53.266;7.920;2022-10-12T12:51:14;17.00;60.60
29663;DHT22;16578;53.266;7.920;2022-10-12T12:53:58;17.00;60.50
29663;DHT22;16578;53.266;7.920;2022-10-12T12:56:40;17.10;60.30
29663;DHT22;16578;53.266;7.920;2022-10-12T13:05:02;17.10;59.40
29663;DHT22;16578;53.266;7.920;2022-10-12T13:18:46;17.20;59.60
29663;DHT22;16578;53.266;7.920;2022-10-12T13:21:19;17.20;59.90
29663;DHT22;16578;53.266;7.920;2022-10-12T13:23:49;17.20;60.20
29663;DHT22;16578;53.266;7.920;2022-10-12T13:26:22;17.20;60.00
29663;DHT22;16578;53.266;7.920;2022-10-12T13:28:49;17.20;59.80
29663;DHT22;16578;53.266;7.920;2022-10-12T13:31:31;17.20;59.80
29663;DHT22;16578;53.266;7.920;2022-10-12T13:34:18;17.20;59.60
29663;DHT22;16578;53.266;7.920;2022-10-12T13:36:49;17.20;59.10
29663;DHT22;16578;53.266;7.920;2022-10-12T13:39:19;17.20;59.50
29663;DHT22;16578;53.266;7.920;2022-10-12T13:41:47;17.20;59.40
29663;DHT22;16578;53.266;7.920;2022-10-12T13:47:23;17.20;59.00
29663;DHT22;16578;53.266;7.920;2022-10-12T13:49:49;17.20;59.00
29663;DHT22;16578;53.266;7.920;2022-10-12T13:52:22;17.20;59.20
29663;DHT22;16578;53.266;7.920;2022-10-12T13:54:49;17.20;58.90
29663;DHT22;16578;53.266;7.920;2022-10-12T13:57:35;17.20;58.70
29663;DHT22;16578;53.266;7.920;2022-10-12T14:02:35;17.20;58.50
29663;DHT22;16578;53.266;7.920;2022-10-12T14:05:02;17.20;58.60
29663;DHT22;16578;53.266;7.920;2022-10-12T14:07:37;17.20;58.40
29663;DHT22;16578;53.266;7.920;2022-10-12T14:10:14;17.20;58.00
29663;DHT22;16578;53.266;7.920;2022-10-12T14:12:41;17.20;58.10
29663;DHT22;16578;53.266;7.920;2022-10-12T14:15:10;17.20;58.20
29663;DHT22;16578;53.266;7.920;2022-10-12T14:17:42;17.20;58.20
29663;DHT22;16578;53.266;7.920;2022-10-12T14:22:51;17.30;58.10
29663;DHT22;16578;53.266;7.920;2022-10-12T14:25:20;17.30;58.00
29663;DHT22;16578;53.266;7.920;2022-10-12T14:28:02;17.30;57.60
29663;DHT22;16578;53.266;7.920;2022-10-12T14:30:31;17.30;57.20
29663;DHT22;16578;53.266;7.920;2022-10-12T14:35:45;17.30;57.40
29663;DHT22;16578;53.266;7.920;2022-10-12T14:38:42;17.30;57.50
29663;DHT22;16578;53.266;7.920;2022-10-12T14:49:31;17.30;57.70
29663;DHT22;16578;53.266;7.920;2022-10-12T14:51:58;17.30;57.60
29663;DHT22;16578;53.266;7.920;2022-10-12T14:54:27;17.30;57.70
29663;DHT22;16578;53.266;7.920;2022-10-12T14:56:53;17.30;57.60
29663;DHT22;16578;53.266;7.920;2022-10-12T14:59:19;17.30;57.60
29663;DHT22;16578;53.266;7.920;2022-10-12T15:01:44;17.30;57.70
29663;DHT22;16578;53.266;7.920;2022-10-12T15:04:14;17.30;57.60
29663;DHT22;16578;53.266;7.920;2022-10-12T15:06:40;17.30;57.40
29663;DHT22;16578;53.266;7.920;2022-10-12T15:09:05;17.30;57.60
29663;DHT22;16578;53.266;7.920;2022-10-12T15:11:31;17.30;57.60
29663;DHT22;16578;53.266;7.920;2022-10-12T15:13:56;17.30;57.50
29663;DHT22;16578;53.266;7.920;2022-10-12T15:16:24;17.30;57.60
29663;DHT22;16578;53.266;7.920;2022-10-12T15:18:50;17.30;57.60
29663;DHT22;16578;53.266;7.920;2022-10-12T15:21:16;17.30;57.40
29663;DHT22;16578;53.266;7.920;2022-10-12T15:23:42;17.30;57.30
29663;DHT22;16578;53.266;7.920;2022-10-12T15:26:11;17.30;57.20
29663;DHT22;16578;53.266;7.920;2022-10-12T15:28:37;17.30;57.30
29663;DHT22;16578;53.266;7.920;2022-10-12T15:31:03;17.30;57.50
29663;DHT22;16578;53.266;7.920;2022-10-12T15:33:29;17.30;57.60
29663;DHT22;16578;53.266;7.920;2022-10-12T15:35:55;17.30;57.60
29663;DHT22;16578;53.266;7.920;2022-10-12T15:38:21;17.30;57.50
29663;DHT22;16578;53.266;7.920;2022-10-12T15:40:47;17.20;57.50
29663;DHT22;16578;53.266;7.920;2022-10-12T15:43:13;17.20;57.30
29663;DHT22;16578;53.266;7.920;2022-10-12T15:45:39;17.20;57.30
29663;DHT22;16578;53.266;7.920;2022-10-12T15:48:06;17.20;57.40
29663;DHT22;16578;53.266;7.920;2022-10-12T15:50:36;17.20;57.50
29663;DHT22;16578;53.266;7.920;2022-10-12T15:53:02;17.20;57.80
29663;DHT22;16578;53.266;7.920;2022-10-12T15:55:29;17.20;58.00
29663;DHT22;16578;53.266;7.920;2022-10-12T15:57:55;17.20;58.00
29663;DHT22;16578;53.266;7.920;2022-10-12T16:00:23;17.10;58.00
29663;DHT22;16578;53.266;7.920;2022-10-12T16:02:50;17.10;58.10
29663;DHT22;16578;53.266;7.920;2022-10-12T16:07:47;17.00;58.50
29663;DHT22;16578;53.266;7.920;2022-10-12T16:10:14;17.00;58.80
29663;DHT22;16578;53.266;7.920;2022-10-12T16:12:46;17.00;58.90
29663;DHT22;16578;53.266;7.920;2022-10-12T16:15:14;17.00;59.00
29663;DHT22;16578;53.266;7.920;2022-10-12T16:17:40;16.90;59.10
29663;DHT22;16578;53.266;7.920;2022-10-12T16:20:06;16.80;59.30
29663;DHT22;16578;53.266;7.920;2022-10-12T16:22:33;16.80;59.50
29663;DHT22;16578;53.266;7.920;2022-10-12T16:24:58;16.70;59.50
29663;DHT22;16578;53.266;7.920;2022-10-12T16:27:24;16.70;59.80
29663;DHT22;16578;53.266;7.920;2022-10-12T16:29:49;16.60;59.90
29663;DHT22;16578;53.266;7.920;2022-10-12T16:32:15;16.60;60.20
29663;DHT22;16578;53.266;7.920;2022-10-12T16:34:40;16.50;60.30
29663;DHT22;16578;53.266;7.920;2022-10-12T16:37:06;16.50;60.50
29663;DHT22;16578;53.266;7.920;2022-10-12T16:39:31;16.40;60.70
29663;DHT22;16578;53.266;7.920;2022-10-12T16:41:57;16.40;60.80
29663;DHT22;16578;53.266;7.920;2022-10-12T16:44:22;16.30;61.00
29663;DHT22;16578;53.266;7.920;2022-10-12T16:46:48;16.30;61.10
29663;DHT22;16578;53.266;7.920;2022-10-12T16:49:14;16.20;61.20
29663;DHT22;16578;53.266;7.920;2022-10-12T16:51:39;16.20;61.50
29663;DHT22;16578;53.266;7.920;2022-10-12T16:54:07;16.10;61.80
29663;DHT22;16578;53.266;7.920;2022-10-12T16:56:33;16.00;61.90
29663;DHT22;16578;53.266;7.920;2022-10-12T16:58:59;16.00;62.10
29663;DHT22;16578;53.266;7.920;2022-10-12T17:01:25;16.00;62.40
29663;DHT22;16578;53.266;7.920;2022-10-12T17:03:53;16.00;62.50
29663;DHT22;16578;53.266;7.920;2022-10-12T17:06:19;15.90;62.40
29663;DHT22;16578;53.266;7.920;2022-10-12T17:08:44;15.90;62.50
29663;DHT22;16578;53.266;7.920;2022-10-12T17:11:12;15.80;62.60
29663;DHT22;16578;53.266;7.920;2022-10-12T17:13:39;15.80;62.90
29663;DHT22;16578;53.266;7.920;2022-10-12T17:16:06;15.80;63.30
29663;DHT22;16578;53.266;7.920;2022-10-12T17:18:51;15.70;63.40
29663;DHT22;16578;53.266;7.920;2022-10-12T17:21:17;15.70;63.60
29663;DHT22;16578;53.266;7.920;2022-10-12T17:23:42;15.70;63.70
29663;DHT22;16578;53.266;7.920;2022-10-12T17:26:08;15.60;63.60
29663;DHT22;16578;53.266;7.920;2022-10-12T17:28:40;15.60;63.70
29663;DHT22;16578;53.266;7.920;2022-10-12T17:31:07;15.60;63.90
29663;DHT22;16578;53.266;7.920;2022-10-12T17:33:33;15.50;63.80